sensor_id;sensor_type;location;lat;lon;timestamp;pressure;altitude;pressure_sealevel;temperature;humidity
22104;BME280;11218;48.886;9.426;2023-05-21T00:01:14;97582.41;;;17.03;73.83
22104;BME280;11218;48.886;9.426;2023-05-21T00:03:44;97580.78;;;17.02;74.00
22104;BME280;11218;48.886;9.426;2023-05-21T00:06:13;97575.44;;;16.97;73.96
22104;BME280;11218;48.886;9.426;2023-05-21T00:08:42;97576.84;;;16.94;74.24
22104;BME280;11218;48.886;9.426;2023-05-21T00:11:10;97580.69;;;16.93;74.71
22104;BME280;11218;48.886;9.426;2023-05-21T00:13:39;97574.25;;;16.89;74.61
22104;BME280;11218;48.886;9.426;2023-05-21T00:16:08;97571.53;;;16.89;74.64
22104;BME280;11218;48.886;9.426;2023-05-21T00:18:37;97571.22;;;16.91;74.73
22104;BME280;11218;48.886;9.426;2023-05-21T00:21:07;97571.22;;;16.91;74.81
22104;BME280;11218;48.886;9.426;2023-05-21T00:23:35;97568.50;;;16.91;74.98
22104;BME280;11218;48.886;9.426;2023-05-21T00:26:05;97559.94;;;16.84;75.20
22104;BME280;11218;48.886;9.426;2023-05-21T00:28:34;97566.56;;;16.78;75.27
22104;BME280;11218;48.886;9.426;2023-05-21T00:31:02;97562.25;;;16.77;75.29
22104;BME280;11218;48.886;9.426;2023-05-21T00:33:32;97565.06;;;16.71;75.92
22104;BME280;11218;48.886;9.426;2023-05-21T00:36:00;97555.59;;;16.69;76.02
22104;BME280;11218;48.886;9.426;2023-05-21T00:38:30;97563.00;;;16.63;76.03
22104;BME280;11218;48.886;9.426;2023-05-21T00:40:59;97543.41;;;16.66;75.21
22104;BME280;11218;48.886;9.426;2023-05-21T00:43:28;97548.63;;;16.63;75.93
22104;BME280;11218;48.886;9.426;2023-05-21T00:45:58;97545.63;;;16.64;75.86
22104;BME280;11218;48.886;9.426;2023-05-21T00:48:27;97546.19;;;16.61;76.01
22104;BME280;11218;48.886;9.426;2023-05-21T00:50:55;97544.88;;;16.59;76.14
22104;BME280;11218;48.886;9.426;2023-05-21T00:53:23;97552.22;;;16.58;76.20
22104;BME280;11218;48.886;9.426;2023-05-21T00:55:54;97550.81;;;16.47;76.78
22104;BME280;11218;48.886;9.426;2023-05-21T00:58:23;97541.03;;;16.46;77.22
22104;BME280;11218;48.886;9.426;2023-05-21T01:00:52;97552.13;;;16.50;77.02
22104;BME280;11218;48.886;9.426;2023-05-21T01:03:21;97541.25;;;16.50;77.10
22104;BME280;11218;48.886;9.426;2023-05-21T01:05:50;97545.06;;;16.49;76.54
22104;BME280;11218;48.886;9.426;2023-05-21T01:08:19;97538.94;;;16.43;76.97
22104;BME280;11218;48.886;9.426;2023-05-21T01:10:48;97542.53;;;16.38;77.72
22104;BME280;11218;48.886;9.426;2023-05-21T01:13:19;97544.16;;;16.39;77.43
22104;BME280;11218;48.886;9.426;2023-05-21T01:15:49;97537.41;;;16.37;77.49
22104;BME280;11218;48.886;9.426;2023-05-21T01:18:18;97539.81;;;16.38;77.42
22104;BME280;11218;48.886;9.426;2023-05-21T01:20:46;97535.50;;;16.37;77.56
22104;BME280;11218;48.886;9.426;2023-05-21T01:23:16;97536.31;;;16.38;77.57
22104;BME280;11218;48.886;9.426;2023-05-21T01:25:45;97540.94;;;16.37;77.43
22104;BME280;11218;48.886;9.426;2023-05-21T01:28:13;97536.91;;;16.35;77.72
22104;BME280;11218;48.886;9.426;2023-05-21T01:30:42;97540.13;;;16.37;77.45
22104;BME280;11218;48.886;9.426;2023-05-21T01:33:14;97540.63;;;16.39;77.55
22104;BME280;11218;48.886;9.426;2023-05-21T01:35:48;97536.00;;;16.39;77.32
22104;BME280;11218;48.886;9.426;2023-05-21T01:38:21;97539.81;;;16.38;77.38
22104;BME280;11218;48.886;9.426;2023-05-21T01:40:52;97545.56;;;16.37;76.80
22104;BME280;11218;48.886;9.426;2023-05-21T01:43:26;97542.16;;;16.31;77.48
22104;BME280;11218;48.886;9.426;2023-05-21T01:45:56;97529.47;;;16.27;77.66
22104;BME280;11218;48.886;9.426;2023-05-21T01:48:27;97532.78;;;16.24;77.10
22104;BME280;11218;48.886;9.426;2023-05-21T01:50:59;97535.28;;;16.20;78.32
22104;BME280;11218;48.886;9.426;2023-05-21T01:53:30;97534.19;;;16.21;78.19
22104;BME280;11218;48.886;9.426;2023-05-21T01:55:58;97529.25;;;16.23;78.17
22104;BME280;11218;48.886;9.426;2023-05-21T01:58:28;97535.00;;;16.22;78.11
22104;BME280;11218;48.886;9.426;2023-05-21T02:00:56;97526.34;;;16.20;78.52
22104;BME280;11218;48.886;9.426;2023-05-21T02:03:25;97534.19;;;16.21;77.99
22104;BME280;11218;48.886;9.426;2023-05-21T02:05:54;97527.94;;;16.21;78.09
22104;BME280;11218;48.886;9.426;2023-05-21T02:08:22;97528.53;;;16.18;78.31
22104;BME280;11218;48.886;9.426;2023-05-21T02:10:52;97529.34;;;16.18;78.44
22104;BME280;11218;48.886;9.426;2023-05-21T02:13:20;97524.72;;;16.19;77.98
22104;BME280;11218;48.886;9.426;2023-05-21T02:15:51;97522.41;;;16.12;78.29
22104;BME280;11218;48.886;9.426;2023-05-21T02:18:21;97520.88;;;16.06;78.13
22104;BME280;11218;48.886;9.426;2023-05-21T02:20:49;97526.91;;;16.03;78.86
22104;BME280;11218;48.886;9.426;2023-05-21T02:23:17;97522.28;;;16.03;78.81
22104;BME280;11218;48.886;9.426;2023-05-21T02:25:46;97526.91;;;16.03;78.76
22104;BME280;11218;48.886;9.426;2023-05-21T02:28:15;97520.75;;;15.97;78.66
22104;BME280;11218;48.886;9.426;2023-05-21T02:30:43;97519.94;;;15.97;79.11
22104;BME280;11218;48.886;9.426;2023-05-21T02:33:13;97514.50;;;15.97;78.81
22104;BME280;11218;48.886;9.426;2023-05-21T02:35:41;97511.59;;;15.93;78.88
22104;BME280;11218;48.886;9.426;2023-05-21T02:38:10;97516.59;;;15.86;79.12
22104;BME280;11218;48.886;9.426;2023-05-21T02:40:39;97515.34;;;15.78;79.51
22104;BME280;11218;48.886;9.426;2023-05-21T02:43:07;97511.53;;;15.80;79.63
22104;BME280;11218;48.886;9.426;2023-05-21T02:45:36;97512.34;;;15.80;79.37
22104;BME280;11218;48.886;9.426;2023-05-21T02:48:05;97513.44;;;15.79;79.43
22104;BME280;11218;48.886;9.426;2023-05-21T02:50:33;97513.16;;;15.81;79.36
22104;BME280;11218;48.886;9.426;2023-05-21T02:53:02;97508.81;;;15.80;79.40
22104;BME280;11218;48.886;9.426;2023-05-21T02:55:30;97505.91;;;15.76;79.60
22104;BME280;11218;48.886;9.426;2023-05-21T02:57:58;97512.72;;;15.73;79.73
22104;BME280;11218;48.886;9.426;2023-05-21T03:00:27;97515.44;;;15.73;79.42
22104;BME280;11218;48.886;9.426;2023-05-21T03:02:56;97519.84;;;15.69;79.93
22104;BME280;11218;48.886;9.426;2023-05-21T03:05:24;97509.00;;;15.69;79.91
22104;BME280;11218;48.886;9.426;2023-05-21T03:07:52;97508.47;;;15.67;79.73
22104;BME280;11218;48.886;9.426;2023-05-21T03:10:21;97506.88;;;15.66;79.29
22104;BME280;11218;48.886;9.426;2023-05-21T03:12:49;97510.97;;;15.64;78.59
22104;BME280;11218;48.886;9.426;2023-05-21T03:15:18;97514.72;;;15.49;79.77
22104;BME280;11218;48.886;9.426;2023-05-21T03:17:49;97508.28;;;15.45;80.06
22104;BME280;11218;48.886;9.426;2023-05-21T03:20:21;97502.91;;;15.40;80.44
22104;BME280;11218;48.886;9.426;2023-05-21T03:22:49;97508.34;;;15.40;80.59
22104;BME280;11218;48.886;9.426;2023-05-21T03:25:18;97509.44;;;15.39;80.48
22104;BME280;11218;48.886;9.426;2023-05-21T03:27:47;97508.94;;;15.37;80.90
22104;BME280;11218;48.886;9.426;2023-05-21T03:30:15;97511.06;;;15.40;80.69
22104;BME280;11218;48.886;9.426;2023-05-21T03:32:43;97501.81;;;15.41;81.02
22104;BME280;11218;48.886;9.426;2023-05-21T03:35:12;97506.44;;;15.40;80.38
22104;BME280;11218;48.886;9.426;2023-05-21T03:37:41;97514.88;;;15.39;80.71
22104;BME280;11218;48.886;9.426;2023-05-21T03:40:11;97496.19;;;15.37;81.12
22104;BME280;11218;48.886;9.426;2023-05-21T03:42:39;97502.91;;;15.40;81.08
22104;BME280;11218;48.886;9.426;2023-05-21T03:45:08;97500.81;;;15.37;80.90
22104;BME280;11218;48.886;9.426;2023-05-21T03:47:37;97501.59;;;15.37;80.77
22104;BME280;11218;48.886;9.426;2023-05-21T03:50:06;97500.28;;;15.35;80.90
22104;BME280;11218;48.886;9.426;2023-05-21T03:52:35;97506.50;;;15.35;80.66
22104;BME280;11218;48.886;9.426;2023-05-21T03:55:05;97506.81;;;15.34;81.09
22104;BME280;11218;48.886;9.426;2023-05-21T03:57:33;97510.09;;;15.31;80.15
22104;BME280;11218;48.886;9.426;2023-05-21T04:00:01;97501.75;;;15.27;80.67
22104;BME280;11218;48.886;9.426;2023-05-21T04:02:30;97506.88;;;15.29;80.81
22104;BME280;11218;48.886;9.426;2023-05-21T04:04:58;97513.41;;;15.28;80.34
22104;BME280;11218;48.886;9.426;2023-05-21T04:07:26;97518.03;;;15.27;80.48
22104;BME280;11218;48.886;9.426;2023-05-21T04:09:55;97515.59;;;15.26;80.22
22104;BME280;11218;48.886;9.426;2023-05-21T04:12:26;97510.75;;;15.23;80.66
22104;BME280;11218;48.886;9.426;2023-05-21T04:14:54;97513.78;;;15.21;80.36
22104;BME280;11218;48.886;9.426;2023-05-21T04:17:22;97526.50;;;15.21;80.47
22104;BME280;11218;48.886;9.426;2023-05-21T04:19:52;97517.06;;;15.18;80.67
22104;BME280;11218;48.886;9.426;2023-05-21T04:22:21;97529.00;;;15.17;80.78
22104;BME280;11218;48.886;9.426;2023-05-21T04:24:52;97531.19;;;15.15;81.38
22104;BME280;11218;48.886;9.426;2023-05-21T04:27:20;97522.78;;;15.17;81.47
22104;BME280;11218;48.886;9.426;2023-05-21T04:29:51;97525.72;;;15.20;81.23
22104;BME280;11218;48.886;9.426;2023-05-21T04:32:20;97535.16;;;15.23;81.27
22104;BME280;11218;48.886;9.426;2023-05-21T04:34:49;97535.69;;;15.25;81.41
22104;BME280;11218;48.886;9.426;2023-05-21T04:37:18;97535.97;;;15.23;80.65
22104;BME280;11218;48.886;9.426;2023-05-21T04:39:46;97530.97;;;15.11;81.07
22104;BME280;11218;48.886;9.426;2023-05-21T04:42:14;97540.50;;;15.09;81.20
22104;BME280;11218;48.886;9.426;2023-05-21T04:44:45;97545.91;;;15.09;81.55
22104;BME280;11218;48.886;9.426;2023-05-21T04:47:16;97541.59;;;15.08;80.95
22104;BME280;11218;48.886;9.426;2023-05-21T04:49:45;97545.97;;;15.04;81.27
22104;BME280;11218;48.886;9.426;2023-05-21T04:52:13;97543.78;;;15.06;81.40
22104;BME280;11218;48.886;9.426;2023-05-21T04:54:42;97545.13;;;15.08;81.40
22104;BME280;11218;48.886;9.426;2023-05-21T04:57:11;97533.97;;;15.10;80.91
22104;BME280;11218;48.886;9.426;2023-05-21T04:59:40;97545.63;;;15.10;80.93
22104;BME280;11218;48.886;9.426;2023-05-21T05:02:09;97546.44;;;15.11;81.35
22104;BME280;11218;48.886;9.426;2023-05-21T05:04:39;97552.31;;;15.18;81.32
22104;BME280;11218;48.886;9.426;2023-05-21T05:07:09;97548.22;;;15.21;81.11
22104;BME280;11218;48.886;9.426;2023-05-21T05:09:37;97548.44;;;15.24;81.44
22104;BME280;11218;48.886;9.426;2023-05-21T05:12:06;97543.81;;;15.25;80.63
22104;BME280;11218;48.886;9.426;2023-05-21T05:14:34;97551.16;;;15.24;81.20
22104;BME280;11218;48.886;9.426;2023-05-21T05:17:03;97549.47;;;15.28;81.20
22104;BME280;11218;48.886;9.426;2023-05-21T05:19:33;97548.38;;;15.29;80.38
22104;BME280;11218;48.886;9.426;2023-05-21T05:22:03;97557.00;;;15.31;80.47
22104;BME280;11218;48.886;9.426;2023-05-21T05:24:31;97553.28;;;15.27;80.76
22104;BME280;11218;48.886;9.426;2023-05-21T05:26:59;97553.50;;;15.31;80.92
22104;BME280;11218;48.886;9.426;2023-05-21T05:29:27;97551.81;;;15.35;81.08
22104;BME280;11218;48.886;9.426;2023-05-21T05:31:56;97546.63;;;15.38;80.84
22104;BME280;11218;48.886;9.426;2023-05-21T05:34:24;97551.97;;;15.43;80.60
22104;BME280;11218;48.886;9.426;2023-05-21T05:36:52;97549.47;;;15.47;81.33
22104;BME280;11218;48.886;9.426;2023-05-21T05:39:22;97548.81;;;15.55;81.29
22104;BME280;11218;48.886;9.426;2023-05-21T05:41:50;97550.56;;;15.65;80.50
22104;BME280;11218;48.886;9.426;2023-05-21T05:44:18;97551.16;;;15.62;81.27
22104;BME280;11218;48.886;9.426;2023-05-21T05:46:46;97539.72;;;15.65;80.95
22104;BME280;11218;48.886;9.426;2023-05-21T05:49:14;97545.66;;;15.67;80.67
22104;BME280;11218;48.886;9.426;2023-05-21T05:51:43;97547.78;;;15.70;81.11
22104;BME280;11218;48.886;9.426;2023-05-21T05:54:11;97549.41;;;15.71;81.43
22104;BME280;11218;48.886;9.426;2023-05-21T05:56:41;97546.09;;;15.74;81.07
22104;BME280;11218;48.886;9.426;2023-05-21T05:59:09;97553.13;;;15.75;80.99
22104;BME280;11218;48.886;9.426;2023-05-21T06:01:40;97540.06;;;15.77;81.40
22104;BME280;11218;48.886;9.426;2023-05-21T06:04:10;97549.97;;;15.87;80.51
22104;BME280;11218;48.886;9.426;2023-05-21T06:06:39;97556.72;;;15.89;81.06
22104;BME280;11218;48.886;9.426;2023-05-21T06:09:11;97555.81;;;15.94;80.84
22104;BME280;11218;48.886;9.426;2023-05-21T06:11:43;97554.94;;;15.98;80.97
22104;BME280;11218;48.886;9.426;2023-05-21T06:14:13;97541.78;;;16.05;80.68
22104;BME280;11218;48.886;9.426;2023-05-21T06:16:43;97552.06;;;16.08;80.42
22104;BME280;11218;48.886;9.426;2023-05-21T06:19:15;97552.34;;;16.07;80.59
22104;BME280;11218;48.886;9.426;2023-05-21T06:21:44;97555.28;;;16.10;80.99
22104;BME280;11218;48.886;9.426;2023-05-21T06:24:14;97550.88;;;16.15;81.01
22104;BME280;11218;48.886;9.426;2023-05-21T06:26:52;97556.41;;;16.23;80.92
22104;BME280;11218;48.886;9.426;2023-05-21T06:29:23;97552.72;;;16.33;80.71
22104;BME280;11218;48.886;9.426;2023-05-21T06:31:55;97543.84;;;16.41;80.58
22104;BME280;11218;48.886;9.426;2023-05-21T06:34:29;97566.81;;;16.49;80.76
22104;BME280;11218;48.886;9.426;2023-05-21T06:36:59;97565.03;;;16.58;80.65
22104;BME280;11218;48.886;9.426;2023-05-21T06:39:28;97548.56;;;16.68;80.30
22104;BME280;11218;48.886;9.426;2023-05-21T06:42:04;97561.44;;;16.76;79.88
22104;BME280;11218;48.886;9.426;2023-05-21T06:44:33;97545.94;;;16.90;78.75
22104;BME280;11218;48.886;9.426;2023-05-21T06:47:04;97555.41;;;16.93;78.77
22104;BME280;11218;48.886;9.426;2023-05-21T06:49:33;97552.47;;;17.03;78.78
22104;BME280;11218;48.886;9.426;2023-05-21T06:52:02;97559.91;;;17.11;78.86
22104;BME280;11218;48.886;9.426;2023-05-21T06:54:30;97559.19;;;17.19;77.59
22104;BME280;11218;48.886;9.426;2023-05-21T06:56:59;97559.09;;;17.24;77.54
22104;BME280;11218;48.886;9.426;2023-05-21T06:59:31;97553.72;;;17.33;76.17
22104;BME280;11218;48.886;9.426;2023-05-21T07:02:00;97552.41;;;17.44;76.63
22104;BME280;11218;48.886;9.426;2023-05-21T07:04:30;97550.44;;;17.58;76.71
22104;BME280;11218;48.886;9.426;2023-05-21T07:07:01;97554.47;;;17.75;76.34
22104;BME280;11218;48.886;9.426;2023-05-21T07:09:31;97564.16;;;17.89;76.05
22104;BME280;11218;48.886;9.426;2023-05-21T07:11:59;97558.22;;;18.10;74.84
22104;BME280;11218;48.886;9.426;2023-05-21T07:14:28;97563.16;;;18.30;71.77
22104;BME280;11218;48.886;9.426;2023-05-21T07:17:00;97562.94;;;18.49;71.09
22104;BME280;11218;48.886;9.426;2023-05-21T07:19:29;97554.38;;;18.64;68.80
22104;BME280;11218;48.886;9.426;2023-05-21T07:21:58;97549.97;;;18.85;68.50
22104;BME280;11218;48.886;9.426;2023-05-21T07:24:27;97555.31;;;18.99;67.94
22104;BME280;11218;48.886;9.426;2023-05-21T07:26:56;97561.81;;;19.20;64.19
22104;BME280;11218;48.886;9.426;2023-05-21T07:29:24;97556.38;;;19.29;63.80
22104;BME280;11218;48.886;9.426;2023-05-21T07:31:53;97565.72;;;19.54;63.86
22104;BME280;11218;48.886;9.426;2023-05-21T07:34:23;97556.41;;;19.72;62.63
22104;BME280;11218;48.886;9.426;2023-05-21T07:36:52;97563.00;;;19.88;62.58
22104;BME280;11218;48.886;9.426;2023-05-21T07:39:20;97559.47;;;19.96;59.81
22104;BME280;11218;48.886;9.426;2023-05-21T07:41:49;97557.69;;;20.00;60.84
22104;BME280;11218;48.886;9.426;2023-05-21T07:44:17;97563.13;;;20.09;59.08
22104;BME280;11218;48.886;9.426;2023-05-21T07:46:44;97558.31;;;20.15;59.84
22104;BME280;11218;48.886;9.426;2023-05-21T07:49:13;97560.06;;;20.28;59.73
22104;BME280;11218;48.886;9.426;2023-05-21T07:51:44;97551.53;;;20.47;59.60
22104;BME280;11218;48.886;9.426;2023-05-21T07:54:12;97552.59;;;20.63;59.52
22104;BME280;11218;48.886;9.426;2023-05-21T07:56:40;97556.03;;;20.81;57.97
22104;BME280;11218;48.886;9.426;2023-05-21T07:59:08;97565.47;;;21.00;56.80
22104;BME280;11218;48.886;9.426;2023-05-21T08:01:39;97560.22;;;21.16;55.94
22104;BME280;11218;48.886;9.426;2023-05-21T08:04:07;97553.13;;;21.24;55.79
22104;BME280;11218;48.886;9.426;2023-05-21T08:06:36;97551.44;;;21.40;54.70
22104;BME280;11218;48.886;9.426;2023-05-21T08:09:06;97561.53;;;21.48;54.97
22104;BME280;11218;48.886;9.426;2023-05-21T08:11:34;97558.13;;;21.51;55.19
22104;BME280;11218;48.886;9.426;2023-05-21T08:14:03;97557.31;;;21.51;55.22
22104;BME280;11218;48.886;9.426;2023-05-21T08:16:31;97549.34;;;21.58;55.49
22104;BME280;11218;48.886;9.426;2023-05-21T08:21:28;97559.38;;;21.75;55.42
22104;BME280;11218;48.886;9.426;2023-05-21T08:23:56;97560.50;;;21.74;55.43
22104;BME280;11218;48.886;9.426;2023-05-21T08:26:27;97555.50;;;21.76;55.60
22104;BME280;11218;48.886;9.426;2023-05-21T08:28:55;97554.81;;;21.79;53.71
22104;BME280;11218;48.886;9.426;2023-05-21T08:31:23;97552.63;;;21.72;55.11
22104;BME280;11218;48.886;9.426;2023-05-21T08:33:51;97566.59;;;21.79;55.77
22104;BME280;11218;48.886;9.426;2023-05-21T08:36:21;97560.97;;;21.96;54.97
22104;BME280;11218;48.886;9.426;2023-05-21T08:38:50;97559.66;;;22.03;54.75
22104;BME280;11218;48.886;9.426;2023-05-21T08:41:19;97562.00;;;22.13;53.63
22104;BME280;11218;48.886;9.426;2023-05-21T08:43:54;97562.38;;;22.23;53.68
22104;BME280;11218;48.886;9.426;2023-05-21T08:46:24;97559.66;;;22.36;53.70
22104;BME280;11218;48.886;9.426;2023-05-21T08:48:55;97557.63;;;22.45;53.10
22104;BME280;11218;48.886;9.426;2023-05-21T08:51:24;97562.09;;;22.49;53.16
22104;BME280;11218;48.886;9.426;2023-05-21T08:53:54;97555.25;;;22.55;52.50
22104;BME280;11218;48.886;9.426;2023-05-21T08:56:23;97557.53;;;22.66;53.17
22104;BME280;11218;48.886;9.426;2023-05-21T08:58:52;97555.94;;;22.65;51.53
22104;BME280;11218;48.886;9.426;2023-05-21T09:01:21;97558.53;;;22.49;53.18
22104;BME280;11218;48.886;9.426;2023-05-21T09:03:55;97567.09;;;22.47;52.45
22104;BME280;11218;48.886;9.426;2023-05-21T09:06:34;97557.97;;;22.55;53.45
22104;BME280;11218;48.886;9.426;2023-05-21T09:09:08;97561.34;;;22.73;52.26
22104;BME280;11218;48.886;9.426;2023-05-21T09:11:38;97567.84;;;22.69;53.24
22104;BME280;11218;48.886;9.426;2023-05-21T09:14:10;97560.00;;;22.79;51.63
22104;BME280;11218;48.886;9.426;2023-05-21T09:16:38;97569.84;;;22.80;51.47
22104;BME280;11218;48.886;9.426;2023-05-21T09:19:06;97556.66;;;22.74;51.50
22104;BME280;11218;48.886;9.426;2023-05-21T09:21:35;97564.06;;;22.61;51.81
22104;BME280;11218;48.886;9.426;2023-05-21T09:24:03;97567.25;;;22.63;51.84
22104;BME280;11218;48.886;9.426;2023-05-21T09:26:31;97564.41;;;22.59;52.42
22104;BME280;11218;48.886;9.426;2023-05-21T09:28:59;97566.25;;;22.68;52.27
22104;BME280;11218;48.886;9.426;2023-05-21T09:31:29;97571.16;;;22.62;52.55
22104;BME280;11218;48.886;9.426;2023-05-21T09:33:58;97572.31;;;22.73;53.23
22104;BME280;11218;48.886;9.426;2023-05-21T09:36:26;97570.59;;;22.69;52.05
22104;BME280;11218;48.886;9.426;2023-05-21T09:38:56;97566.69;;;22.70;52.09
22104;BME280;11218;48.886;9.426;2023-05-21T09:41:34;97565.09;;;22.69;53.02
22104;BME280;11218;48.886;9.426;2023-05-21T09:44:03;97560.69;;;22.88;53.29
22104;BME280;11218;48.886;9.426;2023-05-21T09:46:38;97564.69;;;23.15;51.60
22104;BME280;11218;48.886;9.426;2023-05-21T09:49:21;97566.06;;;23.09;51.83
22104;BME280;11218;48.886;9.426;2023-05-21T09:51:49;97560.81;;;23.16;52.94
22104;BME280;11218;48.886;9.426;2023-05-21T09:54:17;97554.50;;;23.28;52.75
22104;BME280;11218;48.886;9.426;2023-05-21T09:56:45;97553.69;;;23.40;52.08
22104;BME280;11218;48.886;9.426;2023-05-21T09:59:14;97554.59;;;23.44;50.94
22104;BME280;11218;48.886;9.426;2023-05-21T10:01:44;97555.63;;;23.39;51.23
22104;BME280;11218;48.886;9.426;2023-05-21T10:04:13;97561.91;;;23.52;50.76
22104;BME280;11218;48.886;9.426;2023-05-21T10:06:42;97555.06;;;23.58;49.87
22104;BME280;11218;48.886;9.426;2023-05-21T10:09:13;97553.59;;;23.61;49.93
22104;BME280;11218;48.886;9.426;2023-05-21T10:11:46;97552.31;;;23.46;49.81
22104;BME280;11218;48.886;9.426;2023-05-21T10:14:19;97554.28;;;23.57;49.61
22104;BME280;11218;48.886;9.426;2023-05-21T10:16:51;97552.78;;;23.60;50.25
22104;BME280;11218;48.886;9.426;2023-05-21T10:19:21;97550.53;;;23.78;50.43
22104;BME280;11218;48.886;9.426;2023-05-21T10:21:54;97549.91;;;23.97;50.73
22104;BME280;11218;48.886;9.426;2023-05-21T10:24:24;97549.41;;;24.07;48.75
22104;BME280;11218;48.886;9.426;2023-05-21T10:26:52;97546.41;;;24.12;48.74
22104;BME280;11218;48.886;9.426;2023-05-21T10:29:22;97549.09;;;24.24;49.40
22104;BME280;11218;48.886;9.426;2023-05-21T10:31:52;97549.72;;;24.45;49.92
22104;BME280;11218;48.886;9.426;2023-05-21T10:34:21;97543.59;;;24.68;48.45
22104;BME280;11218;48.886;9.426;2023-05-21T10:36:51;97556.22;;;24.84;47.04
22104;BME280;11218;48.886;9.426;2023-05-21T10:39:22;97548.00;;;25.00;47.31
22104;BME280;11218;48.886;9.426;2023-05-21T10:41:59;97547.53;;;25.14;46.58
22104;BME280;11218;48.886;9.426;2023-05-21T10:44:39;97542.84;;;24.99;47.42
22104;BME280;11218;48.886;9.426;2023-05-21T10:47:39;97544.78;;;24.98;47.24
22104;BME280;11218;48.886;9.426;2023-05-21T10:50:25;97548.22;;;24.95;46.85
22104;BME280;11218;48.886;9.426;2023-05-21T10:53:03;97537.56;;;24.78;48.15
22104;BME280;11218;48.886;9.426;2023-05-21T10:55:45;97535.97;;;24.93;48.92
22104;BME280;11218;48.886;9.426;2023-05-21T10:58:37;97539.28;;;25.14;47.77
22104;BME280;11218;48.886;9.426;2023-05-21T11:01:10;97540.09;;;25.34;45.92
22104;BME280;11218;48.886;9.426;2023-05-21T11:03:41;97538.28;;;25.22;45.85
22104;BME280;11218;48.886;9.426;2023-05-21T11:06:21;97537.13;;;25.23;46.73
22104;BME280;11218;48.886;9.426;2023-05-21T11:08:50;97541.03;;;25.22;45.89
22104;BME280;11218;48.886;9.426;2023-05-21T11:11:41;97539.28;;;25.14;46.39
22104;BME280;11218;48.886;9.426;2023-05-21T11:14:29;97533.03;;;25.52;45.77
22104;BME280;11218;48.886;9.426;2023-05-21T11:17:01;97526.16;;;25.62;45.90
22104;BME280;11218;48.886;9.426;2023-05-21T11:19:35;97532.09;;;25.79;45.14
22104;BME280;11218;48.886;9.426;2023-05-21T11:22:09;97522.59;;;25.96;44.83
22104;BME280;11218;48.886;9.426;2023-05-21T11:24:47;97517.41;;;26.14;44.56
22104;BME280;11218;48.886;9.426;2023-05-21T11:27:30;97525.16;;;26.28;42.54
22104;BME280;11218;48.886;9.426;2023-05-21T11:30:03;97522.09;;;26.52;42.53
22104;BME280;11218;48.886;9.426;2023-05-21T11:33:16;97522.13;;;26.78;42.65
22104;BME280;11218;48.886;9.426;2023-05-21T11:35:56;97521.03;;;27.06;38.36
22104;BME280;11218;48.886;9.426;2023-05-21T11:38:27;97521.06;;;27.32;38.18
22104;BME280;11218;48.886;9.426;2023-05-21T11:41:02;97510.31;;;27.57;38.21
22104;BME280;11218;48.886;9.426;2023-05-21T11:43:31;97515.44;;;27.55;38.63
22104;BME280;11218;48.886;9.426;2023-05-21T11:45:59;97520.72;;;27.64;38.21
22104;BME280;11218;48.886;9.426;2023-05-21T11:48:29;97521.25;;;27.46;39.24
22104;BME280;11218;48.886;9.426;2023-05-21T11:51:00;97518.88;;;27.48;39.32
22104;BME280;11218;48.886;9.426;2023-05-21T11:53:29;97520.28;;;27.62;38.77
22104;BME280;11218;48.886;9.426;2023-05-21T11:56:03;97523.91;;;27.66;38.56
22104;BME280;11218;48.886;9.426;2023-05-21T11:58:35;97517.34;;;27.51;38.17
22104;BME280;11218;48.886;9.426;2023-05-21T12:01:03;97521.84;;;27.59;38.47
22104;BME280;11218;48.886;9.426;2023-05-21T12:03:33;97515.44;;;27.55;36.71
22104;BME280;11218;48.886;9.426;2023-05-21T12:06:05;97523.69;;;27.52;38.07
22104;BME280;11218;48.886;9.426;2023-05-21T12:08:34;97525.81;;;27.62;36.12
22104;BME280;11218;48.886;9.426;2023-05-21T12:11:04;97519.06;;;27.59;37.87
22104;BME280;11218;48.886;9.426;2023-05-21T12:13:32;97527.84;;;27.65;37.08
22104;BME280;11218;48.886;9.426;2023-05-21T12:16:01;97533.16;;;27.77;35.43
22104;BME280;11218;48.886;9.426;2023-05-21T12:18:32;97520.16;;;27.81;35.39
22104;BME280;11218;48.886;9.426;2023-05-21T12:21:00;97518.66;;;27.87;34.86
22104;BME280;11218;48.886;9.426;2023-05-21T12:23:31;97514.88;;;28.02;34.96
22104;BME280;11218;48.886;9.426;2023-05-21T12:25:59;97512.16;;;28.06;34.42
22104;BME280;11218;48.886;9.426;2023-05-21T12:28:29;97512.38;;;28.24;35.70
22104;BME280;11218;48.886;9.426;2023-05-21T12:30:57;97523.47;;;28.27;35.35
22104;BME280;11218;48.886;9.426;2023-05-21T12:33:32;97527.13;;;28.35;35.85
22104;BME280;11218;48.886;9.426;2023-05-21T12:36:01;97522.31;;;28.28;35.38
22104;BME280;11218;48.886;9.426;2023-05-21T12:38:31;97519.53;;;28.28;36.68
22104;BME280;11218;48.886;9.426;2023-05-21T12:41:02;97521.00;;;28.19;36.22
22104;BME280;11218;48.886;9.426;2023-05-21T12:43:31;97519.78;;;28.16;35.89
22104;BME280;11218;48.886;9.426;2023-05-21T12:46:02;97516.66;;;28.18;35.72
22104;BME280;11218;48.886;9.426;2023-05-21T12:48:32;97516.59;;;28.14;35.63
22104;BME280;11218;48.886;9.426;2023-05-21T12:51:00;97518.31;;;28.22;34.82
22104;BME280;11218;48.886;9.426;2023-05-21T12:53:41;97516.78;;;28.28;35.37
22104;BME280;11218;48.886;9.426;2023-05-21T12:56:10;97520.53;;;28.46;36.19
22104;BME280;11218;48.886;9.426;2023-05-21T12:58:41;97519.81;;;28.53;35.62
22104;BME280;11218;48.886;9.426;2023-05-21T13:01:10;97520.25;;;28.59;34.70
22104;BME280;11218;48.886;9.426;2023-05-21T13:03:40;97527.75;;;28.58;36.14
22104;BME280;11218;48.886;9.426;2023-05-21T13:06:09;97520.97;;;28.52;34.94
22104;BME280;11218;48.886;9.426;2023-05-21T13:08:39;97519.84;;;28.57;35.78
22104;BME280;11218;48.886;9.426;2023-05-21T13:11:07;97523.72;;;28.49;35.33
22104;BME280;11218;48.886;9.426;2023-05-21T13:13:35;97523.06;;;28.22;34.55
22104;BME280;11218;48.886;9.426;2023-05-21T13:16:04;97525.41;;;28.23;36.84
22104;BME280;11218;48.886;9.426;2023-05-21T13:18:33;97524.66;;;28.26;35.65